KMGM/MGM METAR and TAF weather

Enter ICAO airport designator
Station Type Date Time Source
KMGM METAR 2022/06/30 12:53 UTC NOAA

KMGM 301253Z 10006KT 10SM BKN006 24/22 A3020 RMK AO2 SLP223 T02390222


Station Type Date Time Source
KMGM Decoded METAR 2022/06/30 12:53 UTC NOAA

MONTGOMERY DANNELLY FIELD, AL, United States (KMGM) 32-18N 86-24W 63M
Jun 30, 2022 - 08:53 AM EDT / 2022.06.30 1253 UTC
Wind: from the E (100 degrees) at 7 MPH (6 KT):0
Visibility: 10 mile(s):0
Sky conditions: mostly cloudy
Temperature: 75.0 F (23.9 C)
Dew Point: 72.0 F (22.2 C)
Relative Humidity: 90%
Pressure (altimeter): 30.2 in. Hg (1022 hPa)
ob: KMGM 301253Z 10006KT 10SM BKN006 24/22 A3020 RMK AO2 SLP223 T02390222
cycle: 13

Station Type Date Time Source
KMGM TAF 2022/06/30 12:45 UTC NOAA

TAF
AMD KMGM 301143Z 3012/0112 09005KT P6SM BKN006
FM301400 10005KT P6SM BKN015
FM301500 10006KT P6SM BKN022
FM301600 10005KT P6SM BKN035
FM301800 10006KT 6SM SHRA BR VCTS SCT060CB

Example: see airport list